Glendive, MT

7:49 PM MDT on May 28, 2017 (GMT -0600)
Dawson Community

Weather History for KGDV - January, 2012

Change the Weather History Date:

Monday, January 9, 2012

  Actual Average Record
Temperature  
Mean Temperature 44 °F -  
Max Temperature 57 °F 21 °F 57 °F (2012)
Min Temperature 30 °F 4 °F -13 °F (1998)
Degree Days  
Heating Degree Days 22    
Moisture  
Dew Point 26 °F    
Average Humidity 52    
Maximum Humidity 80    
Minimum Humidity 31    
Precipitation  
Precipitation 0.00 in - - ()
Sea Level Pressure  
Sea Level Pressure 29.96 in    
Wind  
Wind Speed 11 mph (WSW)    
Max Wind Speed 20 mph    
Max Gust Speed 24 mph    
Visibility 10 miles    
Events      
Averages and records for this station are not official NWS values.
T = Trace of Precipitation, MM = Missing Value Source: NWS Daily Summary

Daily Weather History Graph

Daily Weather History Graph

Search for Another Location

Airport or City:

Trip Planner

Search our weather history database for the weather conditions in past years. The results will help you decide how hot, cold, wet, or windy it might be!

Date:

Astronomy

Jan. 09, 2012 Rise Set
Actual Time 7:44 AM MST 4:28 PM MST
Civil Twilight 7:09 AM MST 5:03 PM MST
Nautical Twilight 6:31 AM MST 5:41 PM MST
Astronomical Twilight 5:54 AM MST 6:18 PM MST
Moon 5:22 PM MST (1/9) 7:42 AM MST (1/9)
Length of Visible Light 9h 54m
Length of Day
8h 44m
Full, 100% of the Moon is Illuminated
Jan 9
Full
Jan 16
Last Quarter
Jan 23
New
Jan 30
First Quarter
Feb 7
Full

Hourly Weather History & Observations

Time (MST) Temp. Windchill Dew Point Humidity Pressure Visibility Wind Dir Wind Speed Gust Speed Precip Events Conditions
12:15 AM 37.4 °F 30.3 °F 24.8 °F 60% 29.98 in 10.0 mi West 10.4 mph - N/A   Clear
12:35 AM 33.8 °F 29.6 °F 21.2 °F 60% 29.99 in 10.0 mi SW 4.6 mph - N/A   Clear
12:55 AM 37.4 °F 29.3 °F 24.8 °F 60% 29.98 in 10.0 mi West 12.7 mph - N/A   Clear
1:16 AM 37.4 °F 29.8 °F 24.8 °F 60% 29.98 in 10.0 mi WSW 11.5 mph - N/A   Clear
1:35 AM 37.4 °F 30.3 °F 24.8 °F 60% 29.99 in 10.0 mi WSW 10.4 mph - N/A   Clear
1:55 AM 37.4 °F 30.3 °F 24.8 °F 60% 30.00 in 10.0 mi West 10.4 mph - N/A   Clear
2:15 AM 37.4 °F 30.3 °F 26.6 °F 65% 30.00 in 10.0 mi West 10.4 mph - N/A   Clear
2:35 AM 37.4 °F 30.8 °F 24.8 °F 60% 30.00 in 10.0 mi West 9.2 mph - N/A   Clear
2:55 AM 35.6 °F 29.2 °F 24.8 °F 65% 30.00 in 10.0 mi West 8.1 mph - N/A   Clear
3:15 AM 35.6 °F 27.5 °F 24.8 °F 65% 30.00 in 10.0 mi West 11.5 mph - N/A   Clear
3:55 AM 37.4 °F 29.8 °F 26.6 °F 65% 30.00 in 10.0 mi West 11.5 mph - N/A   Clear
4:15 AM 37.4 °F 30.3 °F 24.8 °F 60% 30.00 in 10.0 mi West 10.4 mph - N/A   Clear
4:35 AM 35.6 °F 28.6 °F 26.6 °F 70% 30.00 in 10.0 mi West 9.2 mph - N/A   Clear
5:35 AM 37.4 °F 29.3 °F 26.6 °F 65% 30.01 in 10.0 mi West 12.7 mph - N/A   Clear
6:15 AM 37.4 °F 29.3 °F 26.6 °F 65% 30.01 in 10.0 mi West 12.7 mph - N/A   Clear
6:35 AM 37.4 °F 29.8 °F 26.6 °F 65% 30.01 in 10.0 mi West 11.5 mph - N/A   Clear
7:15 AM 37.4 °F 30.3 °F 26.6 °F 65% 30.01 in 10.0 mi WSW 10.4 mph - N/A   Clear
7:35 AM 35.6 °F 29.9 °F 26.6 °F 70% 30.01 in 10.0 mi West 6.9 mph - N/A   Clear
8:15 AM 30.2 °F 26.7 °F 19.4 °F 64% 30.01 in 10.0 mi WSW 3.5 mph - N/A   Clear
8:35 AM 37.4 °F 33.8 °F 26.6 °F 65% 30.01 in 10.0 mi West 4.6 mph - N/A   Clear
8:55 AM 30.2 °F 25.4 °F 24.8 °F 80% 30.01 in 10.0 mi ESE 4.6 mph - N/A   Clear
9:15 AM 35.6 °F - 26.6 °F 70% 30.02 in 10.0 mi Calm Calm - N/A   Clear
9:35 AM 37.4 °F 34.9 °F 26.6 °F 65% 30.02 in 10.0 mi South 3.5 mph - N/A   Clear
9:55 AM 41.0 °F 34.3 °F 28.4 °F 61% 30.02 in 10.0 mi WSW 11.5 mph - N/A   Clear
10:15 AM 48.2 °F - 28.4 °F 46% 30.02 in 10.0 mi West 16.1 mph 19.6 mph N/A   Clear
10:35 AM 50.0 °F - 28.4 °F 43% 30.02 in 10.0 mi West 17.3 mph 23.0 mph N/A   Clear
10:55 AM 51.8 °F - 28.4 °F 41% 30.01 in 10.0 mi West 16.1 mph 23.0 mph N/A   Clear
11:15 AM 53.6 °F - 28.4 °F 38% 30.00 in 10.0 mi West 17.3 mph 24.2 mph N/A   Clear
11:35 AM 53.6 °F - 28.4 °F 38% 29.99 in 10.0 mi West 17.3 mph 21.9 mph N/A   Clear
11:55 AM 53.6 °F - 28.4 °F 38% 29.99 in 10.0 mi West 16.1 mph - N/A   Clear
12:15 PM 55.4 °F - 28.4 °F 36% 29.99 in 10.0 mi West 16.1 mph 20.7 mph N/A   Clear
12:35 PM 55.4 °F - 28.4 °F 36% 29.98 in 10.0 mi West 18.4 mph - N/A   Clear
12:55 PM 55.4 °F - 28.4 °F 36% 29.97 in 10.0 mi West 17.3 mph 23.0 mph N/A   Clear
1:15 PM 57.2 °F - 28.4 °F 33% 29.96 in 10.0 mi West 19.6 mph 24.2 mph N/A   Clear
1:35 PM 57.2 °F - 28.4 °F 33% 29.95 in 10.0 mi West 17.3 mph 23.0 mph N/A   Clear
1:55 PM 57.2 °F - 28.4 °F 33% 29.95 in 10.0 mi West 17.3 mph - N/A   Clear
2:15 PM 57.2 °F - 28.4 °F 33% 29.94 in 10.0 mi West 13.8 mph 21.9 mph N/A   Clear
2:55 PM 57.2 °F - 26.6 °F 31% 29.94 in 10.0 mi WSW 13.8 mph 21.9 mph N/A   Clear
3:15 PM 55.4 °F - 26.6 °F 33% 29.94 in 10.0 mi West 8.1 mph - N/A   Clear
3:35 PM 55.4 °F - 26.6 °F 33% 29.94 in 10.0 mi WSW 9.2 mph - N/A   Clear
3:55 PM 51.8 °F - 26.6 °F 38% 29.93 in 10.0 mi SW 8.1 mph - N/A   Clear
4:15 PM 50.0 °F - 26.6 °F 40% 29.93 in 10.0 mi WSW 10.4 mph - N/A   Clear
4:35 PM 46.4 °F 42.4 °F 26.6 °F 46% 29.93 in 10.0 mi WSW 8.1 mph - N/A   Clear
4:55 PM 44.6 °F 40.2 °F 26.6 °F 49% 29.92 in 10.0 mi SSW 8.1 mph - N/A   Clear
5:36 PM 41.0 °F 36.4 °F 26.6 °F 57% 29.93 in 10.0 mi SW 6.9 mph - N/A   Clear
5:55 PM 42.8 °F 36.6 °F 26.6 °F 53% 29.92 in 10.0 mi WSW 11.5 mph - N/A   Clear
6:15 PM 44.6 °F 38.8 °F 26.6 °F 49% 29.91 in 10.0 mi WSW 11.5 mph 17.3 mph N/A   Clear
6:35 PM 44.6 °F 38.4 °F 26.6 °F 49% 29.90 in 10.0 mi SW 12.7 mph - N/A   Clear
6:55 PM 44.6 °F 39.2 °F 26.6 °F 49% 29.91 in 10.0 mi West 10.4 mph - N/A   Clear
7:15 PM 44.6 °F 37.8 °F 26.6 °F 49% 29.91 in 10.0 mi West 15.0 mph - N/A   Clear
7:35 PM 44.6 °F 38.4 °F 24.8 °F 46% 29.91 in 10.0 mi West 12.7 mph - N/A   Clear
7:55 PM 44.6 °F 38.1 °F 24.8 °F 46% 29.90 in 10.0 mi West 13.8 mph - N/A   Clear
8:15 PM 42.8 °F 36.2 °F 24.8 °F 49% 29.90 in 10.0 mi West 12.7 mph - N/A   Clear
8:35 PM 41.0 °F 34.7 °F 24.8 °F 53% 29.90 in 10.0 mi West 10.4 mph - N/A   Clear
8:55 PM 41.0 °F 34.3 °F 24.8 °F 53% 29.91 in 10.0 mi West 11.5 mph - N/A   Clear
9:15 PM 44.6 °F 38.4 °F 24.8 °F 46% 29.91 in 10.0 mi West 12.7 mph - N/A   Clear
9:35 PM 44.6 °F 38.4 °F 24.8 °F 46% 29.90 in 10.0 mi West 12.7 mph - N/A   Clear
9:55 PM 42.8 °F 36.2 °F 24.8 °F 49% 29.90 in 10.0 mi West 12.7 mph - N/A   Clear
10:15 PM 42.8 °F 36.6 °F 24.8 °F 49% 29.90 in 10.0 mi West 11.5 mph - N/A   Clear
10:35 PM 42.8 °F 36.6 °F 24.8 °F 49% 29.91 in 10.0 mi West 11.5 mph - N/A   Clear
10:55 PM 42.8 °F 37.0 °F 24.8 °F 49% 29.90 in 10.0 mi West 10.4 mph - N/A   Clear
11:15 PM 42.8 °F 36.6 °F 24.8 °F 49% 29.90 in 10.0 mi West 11.5 mph - N/A   Clear
11:35 PM 41.0 °F 34.3 °F 24.8 °F 53% 29.90 in 10.0 mi West 11.5 mph - N/A   Clear